Destinations Münster Osnabrück Airport

Münster Osnabrück Airport (EDDG / FMO)

Flights to Münster Osnabrück Airport

Flight number From ETE Dispatch
SPY-2436 EGPH Edinburgh Airport 01:40

Flights from Münster Osnabrück Airport

Flight number To ETE Dispatch
SPY-2437 EGPH Edinburgh Airport 01:30
About

Münster Osnabrück Airport facts

Münster Osnabrück Airport is located in Munster at an elevation of 48.8 meters or 160 feet.

Currently, Speedy Airlines serves 2 flights to and from Münster Osnabrück Airport.

Detailed airport info

Route map

Weather

Current weather

METAR

METAR

Metar data retrieved Sunday, 21 July 2024 at 18:55 UTC

EDDG 211820Z AUTO 25012KT 9999 SHRA BKN011 BKN023 FEW///CB 21/19 Q1009 TEMPO NSW SCT012
Wind Temperature
12 kt 21c